METAR Data
IDs: Format: Raw Decoded Include TAF

Data at: 1151 UTC 16 Feb 2019

PAPM 161056Z AUTO 15009KT 8SM CLR M01/M02 A2994 RMK AO2 SLP141 T10061022 FZRANO
PAPM 160956Z AUTO 16010KT 9SM CLR 01/M02 A2992 RMK AO2 SLP135 T00061017 FZRANO
PAPM 160856Z AUTO 17012G20KT 10SM FEW033 SCT070 02/M02 A2991 RMK AO2 SLP130 T00171017 400171056 53021 FZRANO
PAPM 160756Z AUTO 16011KT 9SM CLR 01/M02 A2988 RMK AO2 SLP121 T00111022 FZRANO
PAPM 160656Z AUTO 16008KT 9SM CLR 01/M02 A2986 RMK AO2 SLP114 T00061022 FZRANO
PAPM 160556Z AUTO 16011KT 10SM CLR 01/M02 A2985 RMK AO2 SLP109 60000 T00111017 10011 21022 53027 FZRANO
PAPM 160456Z AUTO 17009KT 10SM CLR 01/M01 A2981 RMK AO2 SLP099 T00111011 FZRANO
PAPM 160356Z AUTO 11009KT 10SM SCT043 00/M02 A2979 RMK AO2 SLP091 T00001017 FZRANO
PAPM 160318Z AUTO 12011KT 10SM SCT018 BKN041 00/M01 A2978 RMK AO2 FZRANO
PAPM 160256Z AUTO 12014G22KT 10SM OVC018 M01/M02 A2977 RMK AO2 PK WND 11029/0206 SLP082 60000 T10061017 53018 FZRANO
PAPM 160211Z AUTO 11021G29KT 10SM BKN024 OVC037 M01/M02 A2973 RMK AO2 PK WND 11029/0206 FZRANO
PAPM 160156Z AUTO 11022G28KT 10SM SCT024 BKN030 OVC039 M01/M02 A2972 RMK AO2 PK WND 10036/0101 SLP067 T10061022 FZRANO
PAPM 160056Z AUTO 11025G34KT 9SM FEW007 OVC055 M01/M02 A2971 RMK AO2 PK WND 10038/2359 UPE45 SLP062 P0000 T10111022 FZRANO
PAPM 160054Z AUTO 10028G34KT 8SM FEW007 BKN048 OVC060 M01/M02 A2971 RMK AO2 PK WND 10038/2359 UPE45 P0000 FZRANO
PAPM 160038Z AUTO 10028G34KT 5SM UP BR SCT007 BKN026 OVC049 M02/M03 A2971 RMK AO2 PK WND 10038/2359 P0000 FZRANO
PAPM 160012Z AUTO 10024G34KT 4SM UP BR FEW009 SCT025 OVC060 M02/M03 A2971 RMK AO2 PK WND 10038/2359 P0000 FZRANO
PAPM 152356Z AUTO 10029G38KT 2 1/2SM UP BR FEW007 BKN048 OVC055 M02/M03 A2972 RMK AO2 PK WND 09043/2318 VIS 2V4 UPB27SNE27 SLP065 P0000 60000 T10221033 11022 21044 55012 FZRANO
PAPM 152347Z AUTO 10030G39KT 3SM UP BR FEW007 BKN047 OVC055 M02/M03 A2972 RMK AO2 PK WND 09043/2318 UPB27SNE27 P0000 FZRANO
PAPM 152333Z AUTO 10033G42KT 1 1/4SM UP BR FEW007 OVC049 M03/M04 A2971 RMK AO2 PK WND 09043/2318 UPB27SNE27 P0000 FZRANO
PAPM 152326Z AUTO 09033G43KT 1SM -SN BR FEW030 OVC049 M03/M04 A2971 RMK AO2 PK WND 09043/2318 P0000 FZRANO
PAPM 152256Z AUTO 09033G40KT 3/4SM -SN BR SCT007 OVC033 M03/M04 A2972 RMK AO2 PK WND 09042/2226 SLP065 P0000 T10281039 FZRANO
PAPM 152252Z AUTO 09027G37KT 3/4SM -SN BR SCT007 OVC033 M03/M04 A2973 RMK AO2 PK WND 09042/2226 P0000 FZRANO
PAPM 152249Z AUTO 09027G39KT 1/2SM -SN FZFG BKN009 OVC033 M03/M04 A2972 RMK AO2 PK WND 09042/2226 P0000 FZRANO
PAPM 152232Z AUTO 09033G42KT 1/4SM +SN FZFG BKN009 OVC014 M03/M04 A2971 RMK AO2 PK WND 09042/2226 CIG 006V011 P0000 FZRANO
PAPM 152203Z AUTO 09033G41KT 1/2SM -SN FZFG BKN011 BKN016 OVC034 M03/M05 A2972 RMK AO2 PK WND 09041/2157 P0000 FZRANO
PAPM 152200Z AUTO 09032G41KT 3/4SM -SN SCT011 BKN016 OVC034 M02/M06 A2972 RMK AO2 PK WND 09041/2157 P0000 FZRANO
PAPM 152156Z AUTO 09031G41KT 1 1/2SM -SN SCT011 BKN016 OVC034 M02/M06 A2973 RMK AO2 PK WND 09041/2150 SNB12 SLP069 P0000 T10221056 FZRANO
PAPM 152153Z AUTO 09031G41KT 2SM -SN BKN016 OVC034 M02/M06 A2972 RMK AO2 PK WND 09041/2150 SNB12 P0000 FZRANO
PAPM 152056Z AUTO 10027G35KT 10SM OVC048 M02/M07 A2975 RMK AO2 PK WND 09038/2023 SLP078 T10221067 55021 FZRANO
PAPM 151956Z AUTO 09030G37KT 10SM OVC060 M03/M07 A2974 RMK AO2 PK WND 09037/1955 SLP072 T10331072 FZRANO
PAPM 151856Z AUTO 08027G33KT 10SM OVC100 M04/M07 A2979 RMK AO2 PK WND 06038/1804 SLP091 T10441072 FZRANO
PAPM 151805Z AUTO 07029G38KT 10SM SCT020 OVC110 M04/M07 A2981 RMK AO2 PK WND 06038/1804 PRESFR FZRANO
PAPM 151756Z AUTO 06028G35KT 10SM BKN020 BKN110 M04/M07 A2981 RMK AO2 PK WND 09042/1701 SLP098 T10391067 11039 21056 56015 FZRANO
PAPM 151753Z AUTO 05022G28KT 10SM BKN020 BKN120 M04/M07 A2983 RMK AO2 PK WND 09042/1701 FZRANO
PAPM 151656Z AUTO 09035G40KT 10SM CLR M06/M08 A2981 RMK AO2 PK WND 09042/1622 SLP098 T10561078 FZRANO
PAPM 151556Z AUTO 05021G27KT 10SM SCT011 M04/M06 A2986 RMK AO2 PK WND 08033/1539 SLP113 T10441061 FZRANO
PAPM 151551Z AUTO 06017G25KT 10SM SCT011 M04/M06 A2986 RMK AO2 PK WND 08033/1539 FZRANO
PAPM 151510Z AUTO VRB06KT 10SM BKN014 OVC019 M04/M06 A2992 RMK AO2 FZRANO
PAPM 151456Z AUTO 08010G18KT 10SM BKN018 M04/M06 A2992 RMK AO2 PK WND 07026/1421 SLP136 T10391061 56024 FZRANO
PAPM 151356Z AUTO 05016KT 10SM CLR M04/M06 A2994 RMK AO2 SLP142 T10441061 FZRANO
PAPM 151256Z AUTO 06021KT 10SM CLR M04/M06 A2996 RMK AO2 SLP147 T10441061 FZRANO
PAPM 151156Z AUTO 08013KT 10SM CLR M04/M06 A3000 RMK AO2 SLP160 T10441056 11011 21050 56010 FZRANO
PAPM 151056Z AUTO 05017KT 10SM CLR M05/M06 A3000 RMK AO2 SLP161 T10501061 FZRANO
PAPM 150956Z AUTO 04016KT 10SM CLR M04/M06 A3002 RMK AO2 SLP168 T10441061 FZRANO
PAPM 150924Z AUTO 04015KT 10SM SCT022 M05/M06 A3002 RMK AO2 FZRANO
PAPM 150907Z AUTO 05015KT 10SM BKN022 M04/M06 A3002 RMK AO2 FZRANO
PAPM 150856Z AUTO 05015KT 10SM FEW024 M04/M06 A3003 RMK AO2 SLP171 T10441061 400001072 53004 FZRANO
PAPM 150807Z AUTO 05010KT 10SM SCT023 M04/M06 A3002 RMK AO2 FZRANO
PAPM 150756Z AUTO 05013KT 10SM BKN023 M04/M06 A3002 RMK AO2 SLP168 T10391056 FZRANO
PAPM 150656Z AUTO 08008KT 10SM OVC026 M02/M04 A3002 RMK AO2 SLP168 T10221044 FZRANO
PAPM 150556Z AUTO 00000KT 10SM BKN020 OVC026 M02/M04 A3002 RMK AO2 UPE0458 SLP167 P0000 60000 T10221044 10000 21039 53014 FZRANO
PAPM 150456Z AUTO 06015G23KT 9SM UP SCT018 OVC028 M02/M04 A2999 RMK AO2 UPB54SNB00E54 SLP159 P0000 T10221044 FZRANO
PAPM 150356Z AUTO 09010KT 10SM OVC022 M02/M04 A2999 RMK AO2 SLP158 T10221044 FZRANO
PAPM 150256Z AUTO 15011KT 10SM FEW023 BKN028 OVC036 00/M02 A2998 RMK AO2 PK WND 10027/0202 SLP153 60000 T00001022 51016 FZRANO
PAPM 150248Z AUTO 14011KT 10SM SCT023 BKN028 M01/M03 A2997 RMK AO2 PK WND 10027/0202 FZRANO
PAPM 150156Z AUTO 10021G27KT 10SM CLR M02/M05 A2996 RMK AO2 PK WND 12030/0058 SLP147 T10221050 FZRANO
PAPM 150056Z AUTO 12020G28KT 10SM CLR M01/M05 A2995 RMK AO2 PK WND 11033/2358 SNE42 SLP146 P0000 T10111050 FZRANO
PAPM 150043Z AUTO 12017G31KT 9SM FEW017 M02/M05 A2996 RMK AO2 PK WND 11033/2358 SNE42 P0000 FZRANO
PAPM 150018Z AUTO 12023G31KT 3SM -SN BKN017 OVC024 M03/M06 A2994 RMK AO2 PK WND 11033/2358 P0000 FZRANO
PAPM 150003Z AUTO 11024G36KT 1 1/2SM -SN BR SCT017 BKN024 OVC032 M04/M06 A2994 RMK AO2 PK WND 11033/2358 VIS 3/4V2 1/2 P0000 FZRANO
PAPM 142356Z AUTO 11026G36KT 2SM -SN BR FEW017 BKN025 OVC032 M04/M06 A2993 RMK AO2 PK WND 11039/2309 VIS 1 1/4V2 1/2 SLP137 P0000 60000 T10391061 11039 21044 55029 FZRANO